sensor_id;sensor_type;location;lat;lon;timestamp;pressure;altitude;pressure_sealevel;temperature;humidity
65756;BME280;69208;47.502;18.940;2023-08-24T00:00:49;98294.34;;;21.18;95.10
65756;BME280;69208;47.502;18.940;2023-08-24T00:01:52;98297.06;;;21.22;95.25
65756;BME280;69208;47.502;18.940;2023-08-24T00:02:55;98294.44;;;21.25;94.79
65756;BME280;69208;47.502;18.940;2023-08-24T00:03:59;98301.81;;;21.35;92.71
65756;BME280;69208;47.502;18.940;2023-08-24T00:05:01;98299.63;;;21.41;92.53
65756;BME280;69208;47.502;18.940;2023-08-24T00:06:05;98297.38;;;21.43;92.79
65756;BME280;69208;47.502;18.940;2023-08-24T00:07:08;98305.81;;;21.49;92.64
65756;BME280;69208;47.502;18.940;2023-08-24T00:08:11;98304.75;;;21.53;92.09
65756;BME280;69208;47.502;18.940;2023-08-24T00:09:14;98297.19;;;21.59;91.32
65756;BME280;69208;47.502;18.940;2023-08-24T00:10:18;98297.25;;;21.63;91.22
65756;BME280;69208;47.502;18.940;2023-08-24T00:11:21;98292.69;;;21.63;91.23
65756;BME280;69208;47.502;18.940;2023-08-24T00:12:24;98287.41;;;21.67;91.06
65756;BME280;69208;47.502;18.940;2023-08-24T00:13:28;98294.25;;;21.68;90.91
65756;BME280;69208;47.502;18.940;2023-08-24T00:14:31;98289.03;;;21.75;89.68
65756;BME280;69208;47.502;18.940;2023-08-24T00:15:35;98295.19;;;21.83;89.20
65756;BME280;69208;47.502;18.940;2023-08-24T00:16:38;98288.34;;;21.81;89.86
65756;BME280;69208;47.502;18.940;2023-08-24T00:17:41;98289.88;;;21.83;89.56
65756;BME280;69208;47.502;18.940;2023-08-24T00:18:45;98286.44;;;21.82;89.14
65756;BME280;69208;47.502;18.940;2023-08-24T00:19:48;98291.00;;;21.81;89.24
65756;BME280;69208;47.502;18.940;2023-08-24T00:20:51;98292.53;;;21.83;89.36
65756;BME280;69208;47.502;18.940;2023-08-24T00:21:54;98285.31;;;21.83;88.87
65756;BME280;69208;47.502;18.940;2023-08-24T00:22:58;98293.75;;;21.89;88.35
65756;BME280;69208;47.502;18.940;2023-08-24T00:24:01;98298.72;;;21.90;88.62
65756;BME280;69208;47.502;18.940;2023-08-24T00:25:06;98296.47;;;21.92;88.21
65756;BME280;69208;47.502;18.940;2023-08-24T00:26:09;98299.22;;;21.99;87.40
65756;BME280;69208;47.502;18.940;2023-08-24T00:27:12;98289.75;;;22.06;86.88
65756;BME280;69208;47.502;18.940;2023-08-24T00:28:16;98303.53;;;22.11;86.51
65756;BME280;69208;47.502;18.940;2023-08-24T00:29:19;98299.72;;;22.12;86.83
65756;BME280;69208;47.502;18.940;2023-08-24T00:30:24;98297.06;;;22.12;86.55
65756;BME280;69208;47.502;18.940;2023-08-24T00:31:27;98293.28;;;22.13;86.98
65756;BME280;69208;47.502;18.940;2023-08-24T00:32:30;98289.44;;;22.11;87.16
65756;BME280;69208;47.502;18.940;2023-08-24T00:33:37;98290.19;;;22.11;87.12
65756;BME280;69208;47.502;18.940;2023-08-24T00:34:40;98290.88;;;22.04;87.62
65756;BME280;69208;47.502;18.940;2023-08-24T00:35:43;98298.44;;;21.99;88.16
65756;BME280;69208;47.502;18.940;2023-08-24T00:36:46;98291.63;;;22.01;87.81
65756;BME280;69208;47.502;18.940;2023-08-24T00:37:49;98288.91;;;21.98;88.02
65756;BME280;69208;47.502;18.940;2023-08-24T00:38:53;98296.47;;;21.92;88.61
65756;BME280;69208;47.502;18.940;2023-08-24T00:39:59;98297.19;;;21.89;89.20
65756;BME280;69208;47.502;18.940;2023-08-24T00:41:03;98293.34;;;21.87;89.37
65756;BME280;69208;47.502;18.940;2023-08-24T00:42:06;98297.88;;;21.83;89.74
65756;BME280;69208;47.502;18.940;2023-08-24T00:43:09;98298.59;;;21.79;89.89
65756;BME280;69208;47.502;18.940;2023-08-24T00:44:12;98297.78;;;21.75;90.35
65756;BME280;69208;47.502;18.940;2023-08-24T00:45:15;98298.09;;;21.70;90.69
65756;BME280;69208;47.502;18.940;2023-08-24T00:46:18;98295.84;;;21.72;90.45
65756;BME280;69208;47.502;18.940;2023-08-24T00:47:22;98298.12;;;21.74;90.37
65756;BME280;69208;47.502;18.940;2023-08-24T00:48:25;98295.47;;;21.74;90.21
65756;BME280;69208;47.502;18.940;2023-08-24T00:49:31;98306.59;;;21.79;89.51
65756;BME280;69208;47.502;18.940;2023-08-24T00:50:34;98300.94;;;21.85;88.58
65756;BME280;69208;47.502;18.940;2023-08-24T00:51:37;98297.88;;;21.83;88.97
65756;BME280;69208;47.502;18.940;2023-08-24T00:52:41;98305.06;;;21.78;89.63
65756;BME280;69208;47.502;18.940;2023-08-24T00:53:45;98305.81;;;21.79;89.52
65756;BME280;69208;47.502;18.940;2023-08-24T00:54:48;98305.78;;;21.75;89.75
65756;BME280;69208;47.502;18.940;2023-08-24T00:55:52;98305.75;;;21.72;90.31
65756;BME280;69208;47.502;18.940;2023-08-24T00:56:55;98308.69;;;21.63;90.94
65756;BME280;69208;47.502;18.940;2023-08-24T00:57:58;98307.09;;;21.58;91.28
65756;BME280;69208;47.502;18.940;2023-08-24T00:59:02;98312.38;;;21.55;91.81
65756;BME280;69208;47.502;18.940;2023-08-24T01:00:06;98309.28;;;21.53;92.00
65756;BME280;69208;47.502;18.940;2023-08-24T01:01:12;98312.75;;;21.53;92.06
65756;BME280;69208;47.502;18.940;2023-08-24T01:02:15;98311.97;;;21.53;92.21
65756;BME280;69208;47.502;18.940;2023-08-24T01:03:21;98314.28;;;21.54;92.66
65756;BME280;69208;47.502;18.940;2023-08-24T01:04:24;98317.66;;;21.51;92.61
65756;BME280;69208;47.502;18.940;2023-08-24T01:05:28;98318.84;;;21.54;92.39
65756;BME280;69208;47.502;18.940;2023-08-24T01:06:31;98316.94;;;21.54;92.15
65756;BME280;69208;47.502;18.940;2023-08-24T01:07:36;98305.09;;;21.52;92.12
65756;BME280;69208;47.502;18.940;2023-08-24T01:08:40;98309.28;;;21.53;92.00
65756;BME280;69208;47.502;18.940;2023-08-24T01:09:43;98302.03;;;21.50;92.06
65756;BME280;69208;47.502;18.940;2023-08-24T01:11:02;98305.38;;;21.43;92.19
65756;BME280;69208;47.502;18.940;2023-08-24T01:12:39;98300.03;;;21.43;92.00
65756;BME280;69208;47.502;18.940;2023-08-24T01:15:28;98304.78;;;21.30;93.01
65756;BME280;69208;47.502;18.940;2023-08-24T01:16:37;98308.87;;;21.24;93.76
65756;BME280;69208;47.502;18.940;2023-08-24T01:17:43;98313.81;;;21.22;93.97
65756;BME280;69208;47.502;18.940;2023-08-24T01:18:47;98308.06;;;21.20;94.00
65756;BME280;69208;47.502;18.940;2023-08-24T01:19:51;98305.81;;;21.22;93.83
65756;BME280;69208;47.502;18.940;2023-08-24T01:20:55;98306.94;;;21.21;93.96
65756;BME280;69208;47.502;18.940;2023-08-24T01:22:02;98311.03;;;21.15;94.20
65756;BME280;69208;47.502;18.940;2023-08-24T01:24:29;98314.47;;;21.16;94.50
65756;BME280;69208;47.502;18.940;2023-08-24T01:25:47;98314.84;;;21.18;94.42
65756;BME280;69208;47.502;18.940;2023-08-24T01:26:53;98315.22;;;21.16;94.48
65756;BME280;69208;47.502;18.940;2023-08-24T01:27:58;98308.78;;;21.17;94.38
65756;BME280;69208;47.502;18.940;2023-08-24T01:29:04;98308.47;;;21.22;94.05
65756;BME280;69208;47.502;18.940;2023-08-24T01:30:08;98301.53;;;21.18;94.22
65756;BME280;69208;47.502;18.940;2023-08-24T01:31:14;98303.59;;;21.28;93.64
65756;BME280;69208;47.502;18.940;2023-08-24T01:32:19;98295.63;;;21.28;93.42
65756;BME280;69208;47.502;18.940;2023-08-24T01:33:21;98305.09;;;21.25;93.75
65756;BME280;69208;47.502;18.940;2023-08-24T01:34:25;98300.53;;;21.26;93.58
65756;BME280;69208;47.502;18.940;2023-08-24T01:35:28;98307.41;;;21.27;93.55
65756;BME280;69208;47.502;18.940;2023-08-24T01:36:30;98306.63;;;21.26;93.67
65756;BME280;69208;47.502;18.940;2023-08-24T01:37:34;98305.09;;;21.25;93.79
65756;BME280;69208;47.502;18.940;2023-08-24T01:38:37;98302.78;;;21.24;93.97
65756;BME280;69208;47.502;18.940;2023-08-24T01:41:18;98301.53;;;21.18;94.26
65756;BME280;69208;47.502;18.940;2023-08-24T01:42:27;98300.69;;;21.10;94.84
65756;BME280;69208;47.502;18.940;2023-08-24T01:43:32;98295.69;;;21.08;94.95
65756;BME280;69208;47.502;18.940;2023-08-24T01:44:42;98303.66;;;21.05;95.26
65756;BME280;69208;47.502;18.940;2023-08-24T01:45:51;98289.91;;;21.03;95.36
65756;BME280;69208;47.502;18.940;2023-08-24T01:46:55;98303.22;;;21.03;95.54
65756;BME280;69208;47.502;18.940;2023-08-24T01:48:05;98303.22;;;21.03;95.89
65756;BME280;69208;47.502;18.940;2023-08-24T01:49:12;98297.12;;;21.02;96.23
65756;BME280;69208;47.502;18.940;2023-08-24T01:50:17;98303.66;;;21.05;96.22
65756;BME280;69208;47.502;18.940;2023-08-24T01:51:20;98304.78;;;21.04;96.40
65756;BME280;69208;47.502;18.940;2023-08-24T01:52:24;98305.59;;;21.08;96.20
65756;BME280;69208;47.502;18.940;2023-08-24T01:53:29;98307.16;;;21.09;96.59
65756;BME280;69208;47.502;18.940;2023-08-24T01:54:32;98304.09;;;21.10;96.95
65756;BME280;69208;47.502;18.940;2023-08-24T01:55:35;98308.44;;;21.19;96.46
65756;BME280;69208;47.502;18.940;2023-08-24T01:56:38;98301.25;;;21.23;96.11
65756;BME280;69208;47.502;18.940;2023-08-24T01:57:41;98301.66;;;21.25;95.57
65756;BME280;69208;47.502;18.940;2023-08-24T01:58:44;98300.94;;;21.28;95.35
65756;BME280;69208;47.502;18.940;2023-08-24T01:59:48;98297.84;;;21.26;95.17
65756;BME280;69208;47.502;18.940;2023-08-24T02:00:51;98294.13;;;21.30;94.85
65756;BME280;69208;47.502;18.940;2023-08-24T02:01:54;98300.19;;;21.27;95.21
65756;BME280;69208;47.502;18.940;2023-08-24T02:02:57;98301.00;;;21.31;95.06
65756;BME280;69208;47.502;18.940;2023-08-24T02:04:00;98302.16;;;21.34;95.14
65756;BME280;69208;47.502;18.940;2023-08-24T02:05:04;98298.81;;;21.37;95.12
65756;BME280;69208;47.502;18.940;2023-08-24T02:06:07;98299.16;;;21.35;95.47
65756;BME280;69208;47.502;18.940;2023-08-24T02:07:11;98298.38;;;21.35;95.58
65756;BME280;69208;47.502;18.940;2023-08-24T02:08:14;98299.22;;;21.39;95.51
65756;BME280;69208;47.502;18.940;2023-08-24T02:09:17;98300.00;;;21.40;95.32
65756;BME280;69208;47.502;18.940;2023-08-24T02:10:20;98297.75;;;21.42;95.32
65756;BME280;69208;47.502;18.940;2023-08-24T02:11:23;98302.66;;;21.40;95.36
65756;BME280;69208;47.502;18.940;2023-08-24T02:12:26;98299.28;;;21.43;95.24
65756;BME280;69208;47.502;18.940;2023-08-24T02:13:29;98295.88;;;21.46;94.82
65756;BME280;69208;47.502;18.940;2023-08-24T02:14:32;98292.50;;;21.49;94.16
65756;BME280;69208;47.502;18.940;2023-08-24T02:15:37;98297.47;;;21.50;94.20
65756;BME280;69208;47.502;18.940;2023-08-24T02:16:42;98295.63;;;21.54;94.27
65756;BME280;69208;47.502;18.940;2023-08-24T02:17:45;98292.97;;;21.54;94.57
65756;BME280;69208;47.502;18.940;2023-08-24T02:18:48;98293.69;;;21.51;94.69
65756;BME280;69208;47.502;18.940;2023-08-24T02:19:51;98290.28;;;21.54;94.67
65756;BME280;69208;47.502;18.940;2023-08-24T02:20:54;98295.31;;;21.60;94.69
65756;BME280;69208;47.502;18.940;2023-08-24T02:21:57;98294.22;;;21.64;94.54
65756;BME280;69208;47.502;18.940;2023-08-24T02:23:00;98296.88;;;21.64;94.67
65756;BME280;69208;47.502;18.940;2023-08-24T02:24:04;98294.97;;;21.65;94.61
65756;BME280;69208;47.502;18.940;2023-08-24T02:25:09;98293.78;;;21.62;95.24
65756;BME280;69208;47.502;18.940;2023-08-24T02:26:12;98301.00;;;21.58;95.06
65756;BME280;69208;47.502;18.940;2023-08-24T02:27:15;98298.75;;;21.60;94.56
65756;BME280;69208;47.502;18.940;2023-08-24T02:28:18;98294.47;;;21.55;94.46
65756;BME280;69208;47.502;18.940;2023-08-24T02:29:21;98297.16;;;21.55;94.58
65756;BME280;69208;47.502;18.940;2023-08-24T02:30:24;98289.56;;;21.57;94.27
65756;BME280;69208;47.502;18.940;2023-08-24T02:31:28;98293.78;;;21.62;93.73
65756;BME280;69208;47.502;18.940;2023-08-24T02:32:31;98293.75;;;21.58;93.49
65756;BME280;69208;47.502;18.940;2023-08-24T02:33:35;98292.22;;;21.57;93.54
65756;BME280;69208;47.502;18.940;2023-08-24T02:34:38;98282.03;;;21.63;93.20
65756;BME280;69208;47.502;18.940;2023-08-24T02:35:41;98288.53;;;21.66;93.03
65756;BME280;69208;47.502;18.940;2023-08-24T02:36:46;98283.84;;;21.59;93.53
65756;BME280;69208;47.502;18.940;2023-08-24T02:37:49;98288.09;;;21.60;93.49
65756;BME280;69208;47.502;18.940;2023-08-24T02:38:53;98285.00;;;21.58;93.73
65756;BME280;69208;47.502;18.940;2023-08-24T02:39:56;98288.44;;;21.58;93.79
65756;BME280;69208;47.502;18.940;2023-08-24T02:41:06;98286.91;;;21.57;93.95
65756;BME280;69208;47.502;18.940;2023-08-24T02:42:09;98287.66;;;21.58;93.85
65756;BME280;69208;47.502;18.940;2023-08-24T02:43:12;98281.16;;;21.55;94.00
65756;BME280;69208;47.502;18.940;2023-08-24T02:44:15;98285.72;;;21.55;94.36
65756;BME280;69208;47.502;18.940;2023-08-24T02:45:18;98290.97;;;21.48;95.26
65756;BME280;69208;47.502;18.940;2023-08-24T02:46:21;98290.84;;;21.41;95.85
65756;BME280;69208;47.502;18.940;2023-08-24T02:47:24;98287.84;;;21.42;95.95
65756;BME280;69208;47.502;18.940;2023-08-24T02:48:27;98287.47;;;21.44;95.99
65756;BME280;69208;47.502;18.940;2023-08-24T02:49:30;98294.37;;;21.45;96.11
65756;BME280;69208;47.502;18.940;2023-08-24T02:50:33;98294.37;;;21.45;96.21
65756;BME280;69208;47.502;18.940;2023-08-24T02:51:36;98294.72;;;21.43;96.30
65756;BME280;69208;47.502;18.940;2023-08-24T02:52:39;98292.84;;;21.47;96.06
65756;BME280;69208;47.502;18.940;2023-08-24T02:53:42;98287.88;;;21.46;95.95
65756;BME280;69208;47.502;18.940;2023-08-24T02:54:46;98294.75;;;21.47;95.58
65756;BME280;69208;47.502;18.940;2023-08-24T02:55:49;98298.56;;;21.46;95.48
65756;BME280;69208;47.502;18.940;2023-08-24T02:56:53;98296.91;;;21.38;95.38
65756;BME280;69208;47.502;18.940;2023-08-24T02:57:56;98294.25;;;21.38;95.34
65756;BME280;69208;47.502;18.940;2023-08-24T02:58:59;98293.41;;;21.33;95.40
65756;BME280;69208;47.502;18.940;2023-08-24T03:00:03;98295.66;;;21.31;95.46
65756;BME280;69208;47.502;18.940;2023-08-24T03:01:09;98300.28;;;21.34;95.28
65756;BME280;69208;47.502;18.940;2023-08-24T03:02:12;98297.97;;;21.33;95.13
65756;BME280;69208;47.502;18.940;2023-08-24T03:03:16;98299.47;;;21.30;95.19
65756;BME280;69208;47.502;18.940;2023-08-24T03:04:19;98297.09;;;21.25;95.43
65756;BME280;69208;47.502;18.940;2023-08-24T03:05:22;98291.06;;;21.28;95.33
65756;BME280;69208;47.502;18.940;2023-08-24T03:06:25;98292.84;;;21.21;95.75
65756;BME280;69208;47.502;18.940;2023-08-24T03:07:28;98295.09;;;21.19;95.71
65756;BME280;69208;47.502;18.940;2023-08-24T03:08:32;98290.50;;;21.16;95.80
65756;BME280;69208;47.502;18.940;2023-08-24T03:09:36;98290.84;;;21.14;95.77
65756;BME280;69208;47.502;18.940;2023-08-24T03:10:39;98285.13;;;21.12;95.61
65756;BME280;69208;47.502;18.940;2023-08-24T03:11:42;98293.84;;;21.09;95.60
65756;BME280;69208;47.502;18.940;2023-08-24T03:12:45;98288.81;;;21.04;95.72
65756;BME280;69208;47.502;18.940;2023-08-24T03:13:48;98288.75;;;21.00;95.98
65756;BME280;69208;47.502;18.940;2023-08-24T03:14:52;98291.41;;;21.00;96.03
65756;BME280;69208;47.502;18.940;2023-08-24T03:15:56;98290.56;;;20.96;96.43
65756;BME280;69208;47.502;18.940;2023-08-24T03:16:59;98285.97;;;20.93;96.44
65756;BME280;69208;47.502;18.940;2023-08-24T03:18:02;98290.53;;;20.93;96.46
65756;BME280;69208;47.502;18.940;2023-08-24T03:19:05;98282.12;;;20.90;96.57
65756;BME280;69208;47.502;18.940;2023-08-24T03:20:08;98290.88;;;20.91;96.51
65756;BME280;69208;47.502;18.940;2023-08-24T03:21:13;98294.66;;;20.90;96.23
65756;BME280;69208;47.502;18.940;2023-08-24T03:22:16;98296.16;;;20.87;96.37
65756;BME280;69208;47.502;18.940;2023-08-24T03:23:20;98287.06;;;20.88;96.22
65756;BME280;69208;47.502;18.940;2023-08-24T03:24:23;98283.44;;;20.77;96.85
65756;BME280;69208;47.502;18.940;2023-08-24T03:25:26;98285.63;;;20.72;97.34
65756;BME280;69208;47.502;18.940;2023-08-24T03:26:29;98292.13;;;20.74;97.19
65756;BME280;69208;47.502;18.940;2023-08-24T03:27:32;98292.09;;;20.71;97.30
65756;BME280;69208;47.502;18.940;2023-08-24T03:28:35;98285.97;;;20.70;97.20
65756;BME280;69208;47.502;18.940;2023-08-24T03:29:38;98294.66;;;20.67;97.30
65756;BME280;69208;47.502;18.940;2023-08-24T03:30:47;98292.81;;;20.67;97.33
65756;BME280;69208;47.502;18.940;2023-08-24T03:31:50;98295.84;;;20.70;96.71
65756;BME280;69208;47.502;18.940;2023-08-24T03:32:53;98285.63;;;20.72;96.56
65756;BME280;69208;47.502;18.940;2023-08-24T03:33:56;98293.97;;;20.70;96.53
65756;BME280;69208;47.502;18.940;2023-08-24T03:35:00;98299.66;;;20.68;96.70
65756;BME280;69208;47.502;18.940;2023-08-24T03:36:03;98293.13;;;20.66;96.75
65756;BME280;69208;47.502;18.940;2023-08-24T03:37:06;98293.44;;;20.61;96.80
65756;BME280;69208;47.502;18.940;2023-08-24T03:38:09;98301.31;;;20.54;97.00
65756;BME280;69208;47.502;18.940;2023-08-24T03:39:12;98299.66;;;20.49;97.48
65756;BME280;69208;47.502;18.940;2023-08-24T03:40:16;98301.31;;;20.54;97.22
65756;BME280;69208;47.502;18.940;2023-08-24T03:41:19;98297.50;;;20.55;97.10
65756;BME280;69208;47.502;18.940;2023-08-24T03:42:22;98300.84;;;20.52;97.20
65756;BME280;69208;47.502;18.940;2023-08-24T03:43:25;98296.41;;;20.56;96.76
65756;BME280;69208;47.502;18.940;2023-08-24T03:44:28;98303.97;;;20.54;96.74
65756;BME280;69208;47.502;18.940;2023-08-24T03:45:31;98306.25;;;20.55;96.58
65756;BME280;69208;47.502;18.940;2023-08-24T03:46:34;98308.53;;;20.53;96.83
65756;BME280;69208;47.502;18.940;2023-08-24T03:47:37;98304.22;;;20.49;97.20
65756;BME280;69208;47.502;18.940;2023-08-24T03:48:40;98306.53;;;20.50;97.14
65756;BME280;69208;47.502;18.940;2023-08-24T03:49:43;98298.19;;;20.52;96.77
65756;BME280;69208;47.502;18.940;2023-08-24T03:50:47;98308.53;;;20.53;96.64
65756;BME280;69208;47.502;18.940;2023-08-24T03:51:50;98306.88;;;20.49;96.88
65756;BME280;69208;47.502;18.940;2023-08-24T03:52:53;98301.84;;;20.43;96.99
65756;BME280;69208;47.502;18.940;2023-08-24T03:53:57;98304.16;;;20.45;96.90
65756;BME280;69208;47.502;18.940;2023-08-24T03:55:00;98307.53;;;20.42;96.98
65756;BME280;69208;47.502;18.940;2023-08-24T03:56:03;98306.78;;;20.41;97.13
65756;BME280;69208;47.502;18.940;2023-08-24T03:57:06;98301.03;;;20.39;97.35
65756;BME280;69208;47.502;18.940;2023-08-24T03:58:09;98307.47;;;20.38;97.51
65756;BME280;69208;47.502;18.940;2023-08-24T03:59:12;98304.09;;;20.41;97.20
65756;BME280;69208;47.502;18.940;2023-08-24T04:00:15;98307.97;;;20.44;96.96
65756;BME280;69208;47.502;18.940;2023-08-24T04:01:18;98304.97;;;20.49;96.50
65756;BME280;69208;47.502;18.940;2023-08-24T04:02:21;98308.34;;;20.46;96.74
65756;BME280;69208;47.502;18.940;2023-08-24T04:03:24;98304.09;;;20.41;96.87
65756;BME280;69208;47.502;18.940;2023-08-24T04:04:27;98301.50;;;20.45;96.61
65756;BME280;69208;47.502;18.940;2023-08-24T04:05:30;98308.16;;;20.55;95.85
65756;BME280;69208;47.502;18.940;2023-08-24T04:06:33;98308.41;;;20.50;95.98
65756;BME280;69208;47.502;18.940;2023-08-24T04:07:36;98305.69;;;20.46;96.38
65756;BME280;69208;47.502;18.940;2023-08-24T04:08:40;98304.31;;;20.52;96.12
65756;BME280;69208;47.502;18.940;2023-08-24T04:09:43;98307.72;;;20.53;96.16
65756;BME280;69208;47.502;18.940;2023-08-24T04:10:48;98303.47;;;20.48;96.49
65756;BME280;69208;47.502;18.940;2023-08-24T04:11:51;98299.66;;;20.49;96.24
65756;BME280;69208;47.502;18.940;2023-08-24T04:12:54;98306.53;;;20.50;96.10
65756;BME280;69208;47.502;18.940;2023-08-24T04:13:57;98301.22;;;20.50;96.24
65756;BME280;69208;47.502;18.940;2023-08-24T04:15:00;98308.84;;;20.52;96.16
65756;BME280;69208;47.502;18.940;2023-08-24T04:16:02;98305.16;;;20.56;96.02
65756;BME280;69208;47.502;18.940;2023-08-24T04:17:06;98301.78;;;20.59;95.83
65756;BME280;69208;47.502;18.940;2023-08-24T04:18:09;98304.50;;;20.63;95.78
65756;BME280;69208;47.502;18.940;2023-08-24T04:19:12;98304.50;;;20.63;95.65
65756;BME280;69208;47.502;18.940;2023-08-24T04:20:15;98307.88;;;20.60;95.83
65756;BME280;69208;47.502;18.940;2023-08-24T04:21:18;98302.53;;;20.60;95.84
65756;BME280;69208;47.502;18.940;2023-08-24T04:22:21;98300.59;;;20.57;96.24
65756;BME280;69208;47.502;18.940;2023-08-24T04:23:25;98304.44;;;20.59;96.31
65756;BME280;69208;47.502;18.940;2023-08-24T04:24:29;98298.34;;;20.59;96.42
65756;BME280;69208;47.502;18.940;2023-08-24T04:25:32;98307.50;;;20.61;96.25
65756;BME280;69208;47.502;18.940;2023-08-24T04:26:35;98302.97;;;20.62;96.29
65756;BME280;69208;47.502;18.940;2023-08-24T04:27:38;98303.06;;;20.69;96.12
65756;BME280;69208;47.502;18.940;2023-08-24T04:28:40;98308.69;;;20.64;96.66
65756;BME280;69208;47.502;18.940;2023-08-24T04:29:44;98304.94;;;20.65;96.67
65756;BME280;69208;47.502;18.940;2023-08-24T04:30:54;98312.91;;;20.65;96.58
65756;BME280;69208;47.502;18.940;2023-08-24T04:31:58;98306.78;;;20.64;96.98
65756;BME280;69208;47.502;18.940;2023-08-24T04:33:01;98307.16;;;20.63;97.28
65756;BME280;69208;47.502;18.940;2023-08-24T04:34:06;98312.19;;;20.68;97.13
65756;BME280;69208;47.502;18.940;2023-08-24T04:35:09;98304.22;;;20.68;97.28
65756;BME280;69208;47.502;18.940;2023-08-24T04:36:13;98312.25;;;20.72;97.13
65756;BME280;69208;47.502;18.940;2023-08-24T04:37:15;98315.63;;;20.68;97.54
65756;BME280;69208;47.502;18.940;2023-08-24T04:38:18;98306.50;;;20.70;97.53
65756;BME280;69208;47.502;18.940;2023-08-24T04:39:22;98314.50;;;20.70;97.67
65756;BME280;69208;47.502;18.940;2023-08-24T04:40:25;98306.88;;;20.68;97.67
65756;BME280;69208;47.502;18.940;2023-08-24T04:41:28;98304.94;;;20.65;97.59
65756;BME280;69208;47.502;18.940;2023-08-24T04:42:31;98305.97;;;20.60;97.96
65756;BME280;69208;47.502;18.940;2023-08-24T04:43:34;98309.06;;;20.62;97.94
65756;BME280;69208;47.502;18.940;2023-08-24T04:44:40;98306.88;;;20.68;97.72
65756;BME280;69208;47.502;18.940;2023-08-24T04:45:51;98303.19;;;20.76;97.09
65756;BME280;69208;47.502;18.940;2023-08-24T04:46:55;98306.22;;;20.75;97.13
65756;BME280;69208;47.502;18.940;2023-08-24T04:47:58;98308.81;;;20.71;97.61
65756;BME280;69208;47.502;18.940;2023-08-24T04:49:03;98306.50;;;20.70;97.83
65756;BME280;69208;47.502;18.940;2023-08-24T04:50:07;98318.34;;;20.72;98.03
65756;BME280;69208;47.502;18.940;2023-08-24T04:51:10;98320.25;;;20.72;98.23
65756;BME280;69208;47.502;18.940;2023-08-24T04:52:13;98319.81;;;20.70;98.65
65756;BME280;69208;47.502;18.940;2023-08-24T04:53:17;98315.25;;;20.70;98.58
65756;BME280;69208;47.502;18.940;2023-08-24T04:54:20;98314.50;;;20.70;98.99
65756;BME280;69208;47.502;18.940;2023-08-24T04:55:24;98321.72;;;20.69;98.96
65756;BME280;69208;47.502;18.940;2023-08-24T04:56:27;98323.94;;;20.67;99.12
65756;BME280;69208;47.502;18.940;2023-08-24T04:57:30;98321.00;;;20.72;98.89
65756;BME280;69208;47.502;18.940;2023-08-24T04:58:33;98321.75;;;20.73;98.76
65756;BME280;69208;47.502;18.940;2023-08-24T04:59:36;98322.47;;;20.70;98.91
65756;BME280;69208;47.502;18.940;2023-08-24T05:00:39;98324.03;;;20.71;99.12
65756;BME280;69208;47.502;18.940;2023-08-24T05:01:42;98322.53;;;20.73;99.25
65756;BME280;69208;47.502;18.940;2023-08-24T05:02:45;98323.31;;;20.74;99.52
65756;BME280;69208;47.502;18.940;2023-08-24T05:03:48;98330.94;;;20.75;99.79
65756;BME280;69208;47.502;18.940;2023-08-24T05:04:51;98325.31;;;20.80;99.44
65756;BME280;69208;47.502;18.940;2023-08-24T05:05:54;98330.75;;;20.87;99.04
65756;BME280;69208;47.502;18.940;2023-08-24T05:06:58;98325.09;;;20.89;99.00
65756;BME280;69208;47.502;18.940;2023-08-24T05:08:02;98331.22;;;20.93;98.93
65756;BME280;69208;47.502;18.940;2023-08-24T05:09:05;98333.13;;;20.93;99.11
65756;BME280;69208;47.502;18.940;2023-08-24T05:10:09;98333.09;;;20.89;99.67
65756;BME280;69208;47.502;18.940;2023-08-24T05:11:13;98329.75;;;20.96;99.59
65756;BME280;69208;47.502;18.940;2023-08-24T05:12:17;98334.75;;;20.97;99.67
65756;BME280;69208;47.502;18.940;2023-08-24T05:13:20;98332.13;;;21.01;99.56
65756;BME280;69208;47.502;18.940;2023-08-24T05:14:23;98337.41;;;20.97;99.82
65756;BME280;69208;47.502;18.940;2023-08-24T05:15:26;98328.31;;;21.02;99.45
65756;BME280;69208;47.502;18.940;2023-08-24T05:16:29;98331.75;;;21.02;99.67
65756;BME280;69208;47.502;18.940;2023-08-24T05:17:33;98337.50;;;21.04;99.57
65756;BME280;69208;47.502;18.940;2023-08-24T05:18:36;98341.69;;;21.05;99.71
65756;BME280;69208;47.502;18.940;2023-08-24T05:19:39;98341.41;;;21.10;99.48
65756;BME280;69208;47.502;18.940;2023-08-24T05:20:42;98345.25;;;21.13;99.54
65756;BME280;69208;47.502;18.940;2023-08-24T05:21:45;98338.44;;;21.16;99.46
65756;BME280;69208;47.502;18.940;2023-08-24T05:22:48;98336.19;;;21.18;99.58
65756;BME280;69208;47.502;18.940;2023-08-24T05:23:51;98337.34;;;21.20;99.55
65756;BME280;69208;47.502;18.940;2023-08-24T05:24:54;98343.88;;;21.23;99.61
65756;BME280;69208;47.502;18.940;2023-08-24T05:25:58;98341.25;;;21.26;99.71
65756;BME280;69208;47.502;18.940;2023-08-24T05:27:01;98347.06;;;21.32;99.62
65756;BME280;69208;47.502;18.940;2023-08-24T05:28:05;98347.13;;;21.35;99.70
65756;BME280;69208;47.502;18.940;2023-08-24T05:29:07;98339.59;;;21.41;99.55
65756;BME280;69208;47.502;18.940;2023-08-24T05:30:11;98344.16;;;21.41;99.99
65756;BME280;69208;47.502;18.940;2023-08-24T05:31:14;98345.03;;;21.48;99.63
65756;BME280;69208;47.502;18.940;2023-08-24T05:32:17;98342.38;;;21.48;99.76
65756;BME280;69208;47.502;18.940;2023-08-24T05:33:21;98350.06;;;21.53;99.69
65756;BME280;69208;47.502;18.940;2023-08-24T05:34:24;98339.81;;;21.55;99.83
65756;BME280;69208;47.502;18.940;2023-08-24T05:35:27;98350.13;;;21.57;100.00
65756;BME280;69208;47.502;18.940;2023-08-24T05:36:30;98341.44;;;21.64;99.72
65756;BME280;69208;47.502;18.940;2023-08-24T05:37:34;98344.16;;;21.67;99.58
65756;BME280;69208;47.502;18.940;2023-08-24T05:38:37;98350.34;;;21.75;99.08